createdAt,value
2022-12-23T00:00:22.103Z,100313.44
2022-12-23T00:02:50.586Z,100323.50
2022-12-23T00:05:19.296Z,100304.91
2022-12-23T00:07:47.705Z,100315.38
2022-12-23T00:10:16.006Z,100313.44
2022-12-23T00:13:01.794Z,100309.97
2022-12-23T00:15:31.635Z,100323.13
2022-12-23T00:18:00.166Z,100324.28
2022-12-23T00:20:28.527Z,100323.91
2022-12-23T00:23:09.031Z,100327.38
2022-12-23T00:25:44.757Z,100326.63
2022-12-23T00:28:16.270Z,100327.38
2022-12-23T00:30:51.631Z,100322.75
2022-12-23T00:33:22.847Z,100331.25
2022-12-23T00:35:52.198Z,100325.06
2022-12-23T00:38:42.426Z,100319.66
2022-12-23T00:41:27.367Z,100337.44
2022-12-23T00:43:55.848Z,100341.28
2022-12-23T00:46:25.702Z,100341.28
2022-12-23T00:49:11.596Z,100341.28
2022-12-23T00:51:39.992Z,100344.41
2022-12-23T00:54:09.093Z,100347.13
2022-12-23T00:56:37.580Z,100339.44
2022-12-23T00:59:06.282Z,100348.31
2022-12-23T01:01:53.559Z,100359.91
2022-12-23T01:04:39.544Z,100360.69
2022-12-23T01:07:08.605Z,100367.66
2022-12-23T01:09:37.721Z,100374.63
2022-12-23T01:12:07.006Z,100380.03
2022-12-23T01:14:35.582Z,100374.63
2022-12-23T01:17:06.991Z,100380.81
2022-12-23T01:19:35.428Z,100378.13
2022-12-23T01:22:03.896Z,100375.41
2022-12-23T01:24:33.454Z,100371.22
2022-12-23T01:27:02.272Z,100371.56
2022-12-23T01:29:30.760Z,100376.19
2022-12-23T01:31:59.193Z,100385.09
2022-12-23T01:34:36.146Z,100395.19
2022-12-23T01:37:06.199Z,100394.81
2022-12-23T01:39:34.797Z,100391.34
2022-12-23T01:42:20.383Z,100394.81
2022-12-23T01:44:57.579Z,100392.13
2022-12-23T01:47:34.091Z,100394.81
2022-12-23T01:50:10.413Z,100388.63
2022-12-23T01:52:46.305Z,100385.16
2022-12-23T01:55:16.389Z,100394.03
2022-12-23T01:57:46.110Z,100397.88
2022-12-23T02:00:33.211Z,100397.88
2022-12-23T02:03:19.071Z,100394.03
2022-12-23T02:05:49.775Z,100405.28
2022-12-23T02:08:37.508Z,100408.00
2022-12-23T02:11:32.004Z,100409.91
2022-12-23T02:14:35.756Z,100411.06
2022-12-23T02:17:16.265Z,100406.44
2022-12-23T02:20:46.636Z,100418.81
2022-12-23T02:24:01.680Z,100425.38
2022-12-23T02:27:21.210Z,100434.63
2022-12-23T02:30:26.983Z,100442.75
2022-12-23T02:33:30.920Z,100446.59
2022-12-23T02:36:19.599Z,100435.03
2022-12-23T02:38:59.906Z,100443.50
2022-12-23T02:41:37.979Z,100437.72
2022-12-23T02:44:15.263Z,100446.25
2022-12-23T02:46:49.476Z,100448.16
2022-12-23T02:49:25.506Z,100450.09
2022-12-23T02:51:57.753Z,100446.59
2022-12-23T02:54:31.648Z,100457.44
2022-12-23T02:57:02.687Z,100459.75
2022-12-23T02:59:34.254Z,100476.75
2022-12-23T03:02:04.151Z,100472.91
2022-12-23T03:04:32.837Z,100486.44
2022-12-23T03:07:07.200Z,100490.69
2022-12-23T03:09:48.761Z,100492.59
2022-12-23T03:12:28.680Z,100489.91
2022-12-23T03:15:17.073Z,100490.69
2022-12-23T03:18:00.184Z,100482.56
2022-12-23T03:20:40.005Z,100488.75
2022-12-23T03:23:20.326Z,100483.34
2022-12-23T03:25:58.687Z,100486.03
2022-12-23T03:28:34.871Z,100482.97
2022-12-23T03:31:05.511Z,100491.47
2022-12-23T03:33:39.174Z,100487.63
2022-12-23T03:36:16.576Z,100480.63
2022-12-23T03:38:46.611Z,100484.50
2022-12-23T03:41:21.286Z,100489.16
2022-12-23T03:43:56.183Z,100487.91
2022-12-23T03:46:32.353Z,100481.72
2022-12-23T03:49:06.691Z,100472.81
2022-12-23T03:51:42.050Z,100470.47
2022-12-23T03:54:16.682Z,100473.19
2022-12-23T03:56:49.240Z,100474.75
2022-12-23T03:59:23.643Z,100484.00
2022-12-23T04:02:02.721Z,100476.25
2022-12-23T04:04:49.613Z,100474.72
2022-12-23T04:07:23.342Z,100472.03
2022-12-23T04:09:54.063Z,100470.44
2022-12-23T04:12:25.681Z,100480.13
2022-12-23T04:14:54.105Z,100478.53
2022-12-23T04:17:22.463Z,100484.75
2022-12-23T04:19:53.404Z,100483.97
2022-12-23T04:22:21.826Z,100487.47
2022-12-23T04:24:50.128Z,100488.25
2022-12-23T04:27:18.802Z,100482.06
2022-12-23T04:29:47.289Z,100500.19
2022-12-23T04:32:16.068Z,100496.69
2022-12-23T04:34:44.503Z,100497.84
2022-12-23T04:37:14.190Z,100504.03
2022-12-23T04:39:42.520Z,100511.00
2022-12-23T04:42:10.854Z,100516.44
2022-12-23T04:44:39.187Z,100514.06
2022-12-23T04:47:07.542Z,100515.22
2022-12-23T04:49:35.983Z,100516.78
2022-12-23T04:52:04.348Z,100517.56
2022-12-23T04:54:34.445Z,100518.72
2022-12-23T04:57:02.819Z,100514.44
2022-12-23T04:59:32.476Z,100509.03
2022-12-23T05:02:00.977Z,100512.50
2022-12-23T05:04:29.935Z,100506.31
2022-12-23T05:06:58.385Z,100517.16
2022-12-23T05:09:26.739Z,100512.88
2022-12-23T05:11:56.566Z,100505.13
2022-12-23T05:14:24.843Z,100502.06
2022-12-23T05:16:53.668Z,100502.84
2022-12-23T05:19:22.018Z,100498.22
2022-12-23T05:21:50.402Z,100499.75
2022-12-23T05:24:18.801Z,100502.84
2022-12-23T05:26:52.870Z,100510.53
2022-12-23T05:29:27.571Z,100507.47
2022-12-23T05:31:55.945Z,100519.84
2022-12-23T05:34:24.425Z,100521.78
2022-12-23T05:36:52.757Z,100527.97
2022-12-23T05:39:21.218Z,100534.94
2022-12-23T05:41:49.523Z,100545.75
2022-12-23T05:44:17.799Z,100552.31
2022-12-23T05:46:47.491Z,100552.31
2022-12-23T05:49:15.919Z,100555.03
2022-12-23T05:51:44.183Z,100548.84
2022-12-23T05:54:12.541Z,100550.75
2022-12-23T05:56:40.847Z,100548.06
2022-12-23T05:59:10.206Z,100553.03
2022-12-23T06:01:38.596Z,100556.53
2022-12-23T06:04:08.583Z,100547.63
2022-12-23T06:06:37.305Z,100546.81
2022-12-23T06:09:05.608Z,100547.63
2022-12-23T06:11:34.077Z,100541.78
2022-12-23T06:14:02.787Z,100546.41
2022-12-23T06:16:31.202Z,100545.63
2022-12-23T06:18:59.578Z,100544.06
2022-12-23T06:21:29.267Z,100547.56
2022-12-23T06:23:57.578Z,100551.84
2022-12-23T06:26:26.371Z,100534.41
2022-12-23T06:28:54.645Z,100544.06
2022-12-23T06:31:23.034Z,100534.41
2022-12-23T06:33:51.338Z,100529.78
2022-12-23T06:36:20.359Z,100521.66
2022-12-23T06:38:50.003Z,100515.47
2022-12-23T06:41:18.822Z,100522.44
2022-12-23T06:43:52.538Z,100526.28
2022-12-23T06:46:22.713Z,100519.72
2022-12-23T06:48:51.181Z,100514.31
2022-12-23T06:51:19.519Z,100524.72
2022-12-23T06:53:49.313Z,100525.81
2022-12-23T06:56:17.673Z,100532.84
2022-12-23T06:58:46.339Z,100536.31
2022-12-23T07:01:15.311Z,100542.06
2022-12-23T07:03:43.715Z,100552.09
2022-12-23T07:06:12.137Z,100571.41
2022-12-23T07:08:40.504Z,100576.41
2022-12-23T07:11:10.251Z,100582.50
2022-12-23T07:13:38.499Z,100585.94
2022-12-23T07:16:08.591Z,100591.72
2022-12-23T07:18:37.354Z,100610.66
2022-12-23T07:21:10.581Z,100619.09
2022-12-23T07:23:43.990Z,100616.75
2022-12-23T07:26:13.764Z,100621.38
2022-12-23T07:28:42.222Z,100622.16
2022-12-23T07:31:10.528Z,100620.25
2022-12-23T07:33:38.788Z,100614.03
2022-12-23T07:36:07.995Z,100605.16
2022-12-23T07:38:36.351Z,100597.47
2022-12-23T07:41:04.825Z,100594.75
2022-12-23T07:43:34.638Z,100586.63
2022-12-23T07:46:08.416Z,100588.56
2022-12-23T07:48:37.091Z,100590.13
2022-12-23T07:51:06.043Z,100589.03
2022-12-23T07:53:34.394Z,100575.50
2022-12-23T07:56:02.800Z,100580.09
2022-12-23T07:58:31.108Z,100582.81
2022-12-23T08:01:07.992Z,100587.09
2022-12-23T08:03:38.244Z,100579.78
2022-12-23T08:06:12.359Z,100585.94
2022-12-23T08:08:41.971Z,100580.53
2022-12-23T08:11:12.502Z,100581.31
2022-12-23T08:13:43.588Z,100582.09
2022-12-23T08:16:13.307Z,100582.09
2022-12-23T08:18:43.224Z,100575.88
2022-12-23T08:21:15.794Z,100576.66
2022-12-23T08:23:44.899Z,100579.38
2022-12-23T08:26:16.065Z,100567.84
2022-12-23T08:28:45.469Z,100566.72
2022-12-23T08:31:18.120Z,100572.91
2022-12-23T08:33:49.885Z,100571.00
2022-12-23T08:36:23.414Z,100568.72
2022-12-23T08:38:54.083Z,100568.72
2022-12-23T08:41:26.364Z,100573.34
2022-12-23T08:43:55.138Z,100582.25
2022-12-23T08:46:25.814Z,100574.88
2022-12-23T08:48:55.435Z,100586.47
2022-12-23T08:51:26.196Z,100583.00
2022-12-23T08:54:00.657Z,100579.13
2022-12-23T08:56:32.945Z,100573.25
2022-12-23T08:59:02.273Z,100580.94
2022-12-23T09:01:34.779Z,100573.56
2022-12-23T09:04:04.736Z,100574.75
2022-12-23T09:06:38.075Z,100570.91
2022-12-23T09:09:07.141Z,100566.28
2022-12-23T09:11:36.209Z,100558.16
2022-12-23T09:14:05.516Z,100552.75
2022-12-23T09:16:35.381Z,100543.50
2022-12-23T09:19:03.873Z,100559.72
2022-12-23T09:21:32.193Z,100565.94
2022-12-23T09:24:00.577Z,100535.06
2022-12-23T09:26:30.953Z,100532.78
2022-12-23T09:28:59.607Z,100516.16
2022-12-23T09:31:35.855Z,100504.97
2022-12-23T09:34:07.143Z,100517.38
2022-12-23T09:36:35.614Z,100515.00
2022-12-23T09:39:04.811Z,100525.03
2022-12-23T09:41:53.336Z,100506.13
2022-12-23T09:44:50.200Z,100497.66
2022-12-23T09:47:22.500Z,100498.78
2022-12-23T09:49:56.122Z,100492.59
2022-12-23T09:52:32.022Z,100494.50
2022-12-23T09:55:00.843Z,100491.81
2022-12-23T09:57:37.476Z,100489.09
2022-12-23T10:00:13.001Z,100475.56
2022-12-23T10:03:00.560Z,100482.56
2022-12-23T10:05:42.894Z,100469.38
2022-12-23T10:08:18.509Z,100467.47
2022-12-23T10:10:50.990Z,100464.38
2022-12-23T10:13:27.191Z,100467.06
2022-12-23T10:15:59.820Z,100457.81
2022-12-23T10:18:42.231Z,100463.59
2022-12-23T10:21:17.428Z,100471.34
2022-12-23T10:23:52.114Z,100467.09
2022-12-23T10:26:26.915Z,100472.50
2022-12-23T10:29:01.508Z,100472.59
2022-12-23T10:31:42.470Z,100463.75
2022-12-23T10:34:19.900Z,100455.34
2022-12-23T10:37:01.151Z,100443.78
2022-12-23T10:39:38.669Z,100428.34
2022-12-23T10:42:20.059Z,100431.81
2022-12-23T10:45:33.283Z,100420.22
2022-12-23T10:48:18.421Z,100429.13
2022-12-23T10:50:57.124Z,100410.19
2022-12-23T10:53:40.260Z,100412.50
2022-12-23T10:56:10.390Z,100409.00
2022-12-23T10:58:42.633Z,100401.22
2022-12-23T11:01:23.798Z,100398.09
2022-12-23T11:04:04.634Z,100389.97
2022-12-23T11:06:37.748Z,100391.50
2022-12-23T11:09:14.038Z,100394.53
2022-12-23T11:11:57.553Z,100380.25
2022-12-23T11:14:39.987Z,100372.13
2022-12-23T11:17:21.299Z,100366.31
2022-12-23T11:19:50.057Z,100354.72
2022-12-23T11:22:25.822Z,100357.84
2022-12-23T11:24:55.457Z,100348.22
2022-12-23T11:27:23.883Z,100328.91
2022-12-23T11:29:56.104Z,100323.13
2022-12-23T11:32:27.975Z,100306.97
2022-12-23T11:34:57.894Z,100296.16
2022-12-23T11:37:33.459Z,100286.56
2022-12-23T11:40:05.558Z,100278.09
2022-12-23T11:42:36.245Z,100268.00
2022-12-23T11:45:09.514Z,100265.31
2022-12-23T11:47:41.135Z,100273.41
2022-12-23T11:50:33.003Z,100264.16
2022-12-23T11:53:20.133Z,100266.84
2022-12-23T11:56:00.635Z,100262.59
2022-12-23T11:58:31.386Z,100256.34
2022-12-23T12:01:02.516Z,100253.25
2022-12-23T12:03:34.178Z,100250.50
2022-12-23T12:06:05.748Z,100258.97
2022-12-23T12:08:37.917Z,100245.75
2022-12-23T12:11:14.776Z,100241.50
2022-12-23T12:13:45.473Z,100222.88
2022-12-23T12:16:27.820Z,100221.28
2022-12-23T12:18:59.456Z,100210.75
2022-12-23T12:21:34.416Z,100201.47
2022-12-23T12:24:18.384Z,100184.81
2022-12-23T12:26:53.276Z,100192.16
2022-12-23T12:29:28.305Z,100180.88
2022-12-23T12:31:59.813Z,100179.69
2022-12-23T12:34:43.779Z,100173.84
2022-12-23T12:37:24.247Z,100182.31
2022-12-23T12:39:57.257Z,100180.00
2022-12-23T12:42:33.959Z,100147.16
2022-12-23T12:45:16.045Z,100138.97
2022-12-23T12:47:56.846Z,100138.19
2022-12-23T12:50:32.831Z,100117.34
2022-12-23T12:53:11.647Z,100113.41
2022-12-23T12:55:46.336Z,100109.16
2022-12-23T12:58:22.023Z,100106.81
2022-12-23T13:01:25.069Z,100111.44
2022-12-23T13:04:22.706Z,100109.09
2022-12-23T13:07:03.423Z,100112.53
2022-12-23T13:09:44.916Z,100104.03
2022-12-23T13:12:35.322Z,100094.34
2022-12-23T13:15:15.986Z,100085.44
2022-12-23T13:17:55.795Z,100081.22
2022-12-23T13:20:35.345Z,100058.41
2022-12-23T13:23:41.793Z,100042.56
2022-12-23T13:26:09.245Z,100018.94
2022-12-23T13:28:46.821Z,99999.66
2022-12-23T13:31:29.248Z,100023.19
2022-12-23T13:34:06.153Z,100023.19
2022-12-23T13:36:46.703Z,100002.72
2022-12-23T13:39:31.855Z,100000.38
2022-12-23T13:42:05.705Z,100000.38
2022-12-23T13:44:36.432Z,99993.78
2022-12-23T13:47:15.287Z,99994.53
2022-12-23T13:49:58.368Z,99990.28
2022-12-23T13:52:41.588Z,99979.84
2022-12-23T13:55:24.894Z,99981.72
2022-12-23T13:58:01.829Z,99990.97
2022-12-23T14:00:33.951Z,99972.44
2022-12-23T14:03:24.872Z,99975.47
2022-12-23T14:05:54.509Z,99964.28
2022-12-23T14:08:33.127Z,99945.69
2022-12-23T14:11:04.252Z,99955.00
2022-12-23T14:13:42.161Z,99947.25
2022-12-23T14:16:49.651Z,99936.44
2022-12-23T14:19:43.555Z,99925.28
2022-12-23T14:22:34.182Z,99920.66
2022-12-23T14:25:53.498Z,99924.16
2022-12-23T14:28:41.223Z,99910.66
2022-12-23T14:31:32.058Z,99899.47
2022-12-23T14:34:28.762Z,99913.00
2022-12-23T14:37:40.300Z,99900.63
2022-12-23T14:40:51.633Z,99891.41
2022-12-23T14:43:52.732Z,99894.13
2022-12-23T14:46:58.163Z,99905.38
2022-12-23T14:49:44.771Z,99886.16
2022-12-23T14:53:01.638Z,99899.38
2022-12-23T14:55:44.445Z,99902.16
2022-12-23T14:58:42.407Z,99892.59
2022-12-23T15:01:13.982Z,99900.44
2022-12-23T15:03:47.082Z,99893.19
2022-12-23T15:06:28.453Z,99894.47
2022-12-23T15:08:58.249Z,99914.25
2022-12-23T15:11:30.360Z,99916.25
2022-12-23T15:14:01.346Z,99924.03
2022-12-23T15:16:33.640Z,99916.75
2022-12-23T15:19:17.336Z,99915.28
2022-12-23T15:21:51.608Z,99904.84
2022-12-23T15:24:26.561Z,99917.25
2022-12-23T15:27:25.273Z,99911.09
2022-12-23T15:29:49.459Z,99920.44
2022-12-23T15:32:18.902Z,99916.59
2022-12-23T15:34:50.094Z,99917.38
2022-12-23T15:37:26.635Z,99921.66
2022-12-23T15:40:03.393Z,99928.66
2022-12-23T15:42:35.584Z,99925.97
2022-12-23T15:45:33.792Z,99930.63
2022-12-23T15:48:03.012Z,99928.72
2022-12-23T15:50:41.620Z,99927.97
2022-12-23T15:53:18.590Z,99932.25
2022-12-23T15:55:50.508Z,99938.50
2022-12-23T15:58:24.401Z,99943.53
2022-12-23T16:00:57.487Z,99949.38
2022-12-23T16:03:32.884Z,99951.75
2022-12-23T16:06:18.966Z,99937.78
2022-12-23T16:08:58.905Z,99956.81
2022-12-23T16:11:51.394Z,99962.59
2022-12-23T16:14:37.054Z,99970.75
2022-12-23T16:17:18.318Z,99962.66
2022-12-23T16:19:48.929Z,99981.25
2022-12-23T16:22:28.046Z,99974.25
2022-12-23T16:25:13.660Z,99973.50
2022-12-23T16:27:45.268Z,99983.97
2022-12-23T16:30:20.529Z,99990.56
2022-12-23T16:32:55.737Z,100015.75
2022-12-23T16:35:40.012Z,100018.06
2022-12-23T16:38:18.214Z,100030.47
2022-12-23T16:40:51.295Z,100032.41
2022-12-23T16:43:20.628Z,100034.34
2022-12-23T16:45:53.113Z,100038.19
2022-12-23T16:48:30.365Z,100043.59
2022-12-23T16:50:59.266Z,100048.69
2022-12-23T16:53:27.616Z,100055.28
2022-12-23T16:56:00.927Z,100057.97
2022-12-23T16:58:29.772Z,100068.81
2022-12-23T17:00:58.442Z,100064.97
2022-12-23T17:03:26.796Z,100069.19
2022-12-23T17:05:55.198Z,100071.91
2022-12-23T17:08:23.480Z,100069.59
2022-12-23T17:10:52.145Z,100080.81
2022-12-23T17:13:22.326Z,100082.34
2022-12-23T17:15:51.375Z,100097.47
2022-12-23T17:18:19.889Z,100089.34
2022-12-23T17:20:50.149Z,100078.88
2022-12-23T17:23:28.419Z,100092.00
2022-12-23T17:25:57.013Z,100099.75
2022-12-23T17:28:32.516Z,100109.03
2022-12-23T17:31:01.872Z,100124.53
2022-12-23T17:33:33.121Z,100111.31
2022-12-23T17:36:02.143Z,100124.84
2022-12-23T17:38:30.516Z,100126.00
2022-12-23T17:40:59.611Z,100119.81
2022-12-23T17:43:29.382Z,100127.94
2022-12-23T17:45:57.756Z,100122.88
2022-12-23T17:48:31.364Z,100127.13
2022-12-23T17:51:00.337Z,100132.16
2022-12-23T17:53:28.747Z,100143.38
2022-12-23T17:55:57.189Z,100148.75
2022-12-23T17:58:25.504Z,100146.84
2022-12-23T18:00:55.644Z,100147.22
2022-12-23T18:03:25.188Z,100158.44
2022-12-23T18:06:01.292Z,100162.28
2022-12-23T18:08:30.591Z,100159.56
2022-12-23T18:11:00.676Z,100161.84
2022-12-23T18:13:29.010Z,100162.63
2022-12-23T18:15:58.723Z,100165.72
2022-12-23T18:18:35.622Z,100169.91
2022-12-23T18:21:10.370Z,100180.75
2022-12-23T18:23:38.769Z,100174.19
2022-12-23T18:26:07.129Z,100176.91
2022-12-23T18:28:35.526Z,100173.41
2022-12-23T18:31:05.501Z,100176.13
2022-12-23T18:33:33.875Z,100191.59
2022-12-23T18:36:02.352Z,100190.84
2022-12-23T18:38:30.668Z,100186.19
2022-12-23T18:40:59.018Z,100195.03
2022-12-23T18:43:28.419Z,100205.09
2022-12-23T18:45:57.086Z,100200.81
2022-12-23T18:48:26.859Z,100195.75
2022-12-23T18:50:55.166Z,100199.25
2022-12-23T18:53:25.476Z,100185.31
2022-12-23T18:55:55.870Z,100197.69
2022-12-23T18:58:25.594Z,100207.75
2022-12-23T19:00:54.313Z,100203.81
2022-12-23T19:03:27.320Z,100215.81
2022-12-23T19:05:57.356Z,100218.53
2022-12-23T19:08:28.003Z,100218.94
2022-12-23T19:10:57.237Z,100220.47
2022-12-23T19:13:25.586Z,100213.50
2022-12-23T19:15:54.147Z,100219.38
2022-12-23T19:18:23.830Z,100222.06
2022-12-23T19:20:53.547Z,100205.38
2022-12-23T19:23:21.846Z,100210.03
2022-12-23T19:25:55.170Z,100211.19
2022-12-23T19:28:24.166Z,100214.66
2022-12-23T19:30:52.846Z,100220.09
2022-12-23T19:33:21.203Z,100215.81
2022-12-23T19:35:49.532Z,100225.50
2022-12-23T19:38:19.270Z,100225.09
2022-12-23T19:40:57.423Z,100236.34
2022-12-23T19:43:25.940Z,100238.66
2022-12-23T19:45:59.441Z,100244.88
2022-12-23T19:48:27.904Z,100238.63
2022-12-23T19:51:00.752Z,100250.66
2022-12-23T19:53:31.042Z,100253.31
2022-12-23T19:56:00.686Z,100261.03
2022-12-23T19:58:32.569Z,100273.78
2022-12-23T20:01:09.775Z,100274.16
2022-12-23T20:03:38.546Z,100276.09
2022-12-23T20:06:09.544Z,100282.66
2022-12-23T20:08:39.231Z,100288.06
2022-12-23T20:11:10.198Z,100299.28
2022-12-23T20:13:39.209Z,100302.75
2022-12-23T20:16:09.480Z,100292.31
2022-12-23T20:18:38.403Z,100298.09
2022-12-23T20:21:08.154Z,100309.69
2022-12-23T20:23:38.437Z,100307.78
2022-12-23T20:26:07.379Z,100310.81
2022-12-23T20:28:35.977Z,100307.38
2022-12-23T20:31:09.200Z,100322.47
2022-12-23T20:33:38.703Z,100325.19
2022-12-23T20:36:08.908Z,100324.03
2022-12-23T20:38:41.111Z,100345.31
2022-12-23T20:41:12.159Z,100328.28
2022-12-23T20:43:40.420Z,100336.00
2022-12-23T20:46:13.150Z,100337.91
2022-12-23T20:48:42.270Z,100343.72
2022-12-23T20:51:14.731Z,100349.13
2022-12-23T20:53:44.846Z,100353.00
2022-12-23T20:56:16.422Z,100373.94
2022-12-23T20:58:57.831Z,100369.28
2022-12-23T21:01:29.953Z,100384.75
2022-12-23T21:04:00.915Z,100385.91
2022-12-23T21:06:30.448Z,100397.88
2022-12-23T21:09:01.417Z,100407.94
2022-12-23T21:11:30.892Z,100400.56
2022-12-23T21:14:06.415Z,100414.41
2022-12-23T21:16:37.743Z,100412.78
2022-12-23T21:19:08.433Z,100426.72
2022-12-23T21:21:36.819Z,100426.63
2022-12-23T21:24:07.480Z,100431.63
2022-12-23T21:26:36.360Z,100434.75
2022-12-23T21:29:07.680Z,100428.88
2022-12-23T21:31:38.946Z,100434.66
2022-12-23T21:34:07.576Z,100433.09
2022-12-23T21:36:39.377Z,100429.97
2022-12-23T21:39:12.482Z,100433.84
2022-12-23T21:41:42.185Z,100437.69
2022-12-23T21:44:13.823Z,100456.63
2022-12-23T21:46:42.194Z,100453.91
2022-12-23T21:49:12.144Z,100450.03
2022-12-23T21:51:41.723Z,100456.22
2022-12-23T21:54:13.505Z,100460.06
2022-12-23T21:56:42.886Z,100459.28
2022-12-23T21:59:14.678Z,100473.97
2022-12-23T22:01:43.839Z,100476.66
2022-12-23T22:04:13.067Z,100472.41
2022-12-23T22:06:44.679Z,100484.00
2022-12-23T22:09:17.717Z,100489.44
2022-12-23T22:11:47.655Z,100491.34
2022-12-23T22:14:18.850Z,100476.22
2022-12-23T22:16:47.383Z,100505.25
2022-12-23T22:19:16.363Z,100509.50
2022-12-23T22:21:44.744Z,100518.41
2022-12-23T22:24:14.449Z,100513.00
2022-12-23T22:26:43.022Z,100514.13
2022-12-23T22:29:12.242Z,100522.25
2022-12-23T22:31:44.068Z,100514.50
2022-12-23T22:34:16.293Z,100527.25
2022-12-23T22:36:44.898Z,100529.56
2022-12-23T22:39:20.501Z,100538.09
2022-12-23T22:41:50.122Z,100537.31
2022-12-23T22:44:18.804Z,100549.69
2022-12-23T22:46:47.313Z,100556.69
2022-12-23T22:49:16.764Z,100553.56
2022-12-23T22:51:45.575Z,100562.09
2022-12-23T22:54:15.834Z,100553.19
2022-12-23T22:56:45.815Z,100555.91
2022-12-23T22:59:22.255Z,100570.22
2022-12-23T23:01:51.675Z,100564.03
2022-12-23T23:04:20.136Z,100586.44
2022-12-23T23:06:48.441Z,100568.66
2022-12-23T23:09:20.735Z,100584.88
2022-12-23T23:11:50.058Z,100591.44
2022-12-23T23:14:18.731Z,100586.03
2022-12-23T23:16:47.374Z,100589.88
2022-12-23T23:19:17.128Z,100604.56
2022-12-23T23:21:45.519Z,100592.88
2022-12-23T23:24:13.921Z,100608.69
2022-12-23T23:26:43.545Z,100608.25
2022-12-23T23:29:11.919Z,100609.41
2022-12-23T23:31:42.419Z,100627.19
2022-12-23T23:34:11.868Z,100624.47
2022-12-23T23:36:40.338Z,100627.16
2022-12-23T23:39:08.769Z,100620.50
2022-12-23T23:41:37.019Z,100622.78
2022-12-23T23:44:06.899Z,100632.06
2022-12-23T23:46:35.427Z,100636.69
2022-12-23T23:49:03.922Z,100647.13
2022-12-23T23:51:32.455Z,100652.06
2022-12-23T23:54:00.810Z,100651.22
2022-12-23T23:56:35.853Z,100661.97
2022-12-23T23:59:08.452Z,100664.25
